Time;durP1;ratioP1;P1;durP2;ratioP2;P2;SDS_P1;SDS_P2;PMS_P1;PMS_P2;Temp;Humidity;BMP_temperature;BMP_pressure;BME280_temperature;BME280_humidity;BME280_pressure;Samples;Min_cycle;Max_cycle;Signal;HPM_P1;HPM_P2
2022/04/04 00:00:20;;;;;;;13.02;6.63;;;2.90;99.90;;;;;;5054571;28;20032;-91
2022/04/04 00:02:56;;;;;;;9.70;6.07;;;2.90;99.90;;;;;;5054239;28;20025;-92
2022/04/04 00:05:22;;;;;;;7.57;6.05;;;2.90;99.90;;;;;;5053588;28;20041;-92
2022/04/04 00:07:48;;;;;;;7.60;6.03;;;2.90;99.90;;;;;;5052930;28;20029;-90
2022/04/04 00:10:14;;;;;;;7.03;5.90;;;2.90;99.90;;;;;;5053372;28;20071;-91
2022/04/04 00:12:39;;;;;;;12.60;6.78;;;2.90;99.90;;;;;;5053102;28;20460;-90
2022/04/04 00:15:07;;;;;;;7.70;6.18;;;2.90;99.90;;;;;;5052736;28;20103;-90
2022/04/04 00:17:32;;;;;;;9.55;6.85;;;2.90;99.90;;;;;;5052273;28;20025;-90
2022/04/04 00:20:08;;;;;;;8.65;6.05;;;3.00;99.90;;;;;;5053978;28;20119;-90
2022/04/04 00:22:34;;;;;;;8.05;6.30;;;2.90;99.90;;;;;;5053471;28;20108;-90
2022/04/04 00:25:00;;;;;;;8.65;6.95;;;2.90;99.90;;;;;;5052463;28;20029;-91
2022/04/04 00:27:29;;;;;;;8.38;7.03;;;2.90;99.90;;;;;;5052304;28;20021;-91
2022/04/04 00:29:56;;;;;;;8.48;6.75;;;3.00;99.90;;;;;;5053699;28;20060;-92
2022/04/04 00:32:29;;;;;;;10.70;6.78;;;3.00;99.90;;;;;;5052417;28;20031;-91
2022/04/04 00:34:55;;;;;;;12.70;6.88;;;3.00;99.90;;;;;;5052255;28;20032;-91
2022/04/04 00:37:21;;;;;;;14.73;7.97;;;2.90;99.90;;;;;;5052216;28;20376;-90
2022/04/04 00:39:46;;;;;;;11.75;8.77;;;2.90;99.90;;;;;;5064714;28;20081;-91
2022/04/04 00:42:16;;;;;;;14.55;9.10;;;3.00;99.90;;;;;;5055401;28;20074;-90
2022/04/04 00:44:45;;;;;;;10.70;8.85;;;2.90;99.90;;;;;;5055272;28;20078;-90
2022/04/04 00:47:11;;;;;;;12.88;8.85;;;2.90;99.90;;;;;;5073659;28;20349;-90
2022/04/04 00:50:06;;;;;;;14.70;8.88;;;2.90;99.90;;;;;;5055645;28;20017;-91
2022/04/04 00:52:32;;;;;;;9.68;7.60;;;2.90;99.90;;;;;;5055607;28;20070;-92
2022/04/04 00:54:57;;;;;;;10.77;8.88;;;2.90;99.90;;;;;;5054897;28;20021;-91
2022/04/04 00:57:26;;;;;;;20.80;10.15;;;2.90;99.90;;;;;;5055422;28;20430;-91
2022/04/04 00:59:52;;;;;;;16.00;9.20;;;2.80;99.90;;;;;;5072006;28;20024;-89
2022/04/04 01:02:18;;;;;;;13.48;10.15;;;2.80;99.90;;;;;;5073281;28;20031;-92
2022/04/04 01:04:46;;;;;;;13.02;9.77;;;2.80;99.90;;;;;;5051942;28;20036;-91
2022/04/04 01:07:12;;;;;;;14.43;10.80;;;2.90;99.90;;;;;;5051781;28;20066;-89
2022/04/04 01:09:50;;;;;;;13.13;9.98;;;2.90;99.90;;;;;;5055153;28;20107;-91
2022/04/04 01:12:16;;;;;;;17.52;11.88;;;2.80;99.90;;;;;;5053119;28;20025;-91
2022/04/04 01:14:48;;;;;;;15.85;11.65;;;2.90;99.90;;;;;;5052942;28;20029;-90
2022/04/04 01:17:28;;;;;;;17.08;11.75;;;2.80;99.90;;;;;;5073006;28;20106;-92
2022/04/04 01:19:56;;;;;;;17.80;12.20;;;2.80;99.90;;;;;;5055068;28;20032;-91
2022/04/04 01:22:24;;;;;;;17.27;13.82;;;2.80;99.90;;;;;;5055244;28;20535;-91
2022/04/04 01:24:51;;;;;;;21.58;14.90;;;2.80;99.90;;;;;;5054955;28;20489;-90
2022/04/04 01:27:16;;;;;;;21.80;15.80;;;2.80;99.90;;;;;;5055058;28;20388;-89
2022/04/04 01:29:50;;;;;;;22.20;16.60;;;2.80;99.90;;;;;;5071910;28;20016;-89
2022/04/04 01:32:16;;;;;;;24.00;16.65;;;2.80;99.90;;;;;;5071635;28;20162;-89
2022/04/04 01:35:01;;;;;;;26.77;16.83;;;2.80;99.90;;;;;;5073044;28;20098;-89
2022/04/04 01:37:27;;;;;;;24.13;17.73;;;2.80;99.90;;;;;;5072400;28;20074;-90
2022/04/04 01:39:53;;;;;;;27.55;18.50;;;2.80;99.90;;;;;;5052121;28;20423;-92
2022/04/04 01:42:19;;;;;;;30.23;19.13;;;2.80;99.90;;;;;;5054593;28;20032;-91
2022/04/04 01:44:47;;;;;;;31.92;19.83;;;2.80;99.90;;;;;;5071362;28;20586;-90
2022/04/04 01:47:12;;;;;;;26.33;19.67;;;2.80;99.90;;;;;;5071530;28;20154;-89
2022/04/04 01:49:40;;;;;;;25.02;20.35;;;2.70;99.90;;;;;;5054588;28;20052;-90
2022/04/04 01:52:05;;;;;;;27.20;20.58;;;2.70;99.90;;;;;;5054196;28;20029;-91
2022/04/04 01:54:50;;;;;;;29.00;20.65;;;2.70;99.90;;;;;;5072403;28;20061;-89
2022/04/04 01:57:37;;;;;;;28.25;20.77;;;2.70;99.90;;;;;;5054750;28;20037;-91
2022/04/04 02:00:04;;;;;;;30.30;20.92;;;2.70;99.90;;;;;;5054641;28;20025;-90
2022/04/04 02:02:31;;;;;;;32.53;20.92;;;2.70;99.90;;;;;;5072553;28;20028;-90
2022/04/04 02:04:57;;;;;;;29.35;21.60;;;2.70;99.90;;;;;;5072409;28;20036;-90
2022/04/04 02:07:23;;;;;;;37.75;20.20;;;2.70;99.90;;;;;;5072375;28;20025;-91
2022/04/04 02:10:25;;;;;;;29.55;20.25;;;2.70;99.90;;;;;;5054566;28;20024;-91
2022/04/04 02:12:51;;;;;;;31.45;21.17;;;2.70;99.90;;;;;;5072517;28;20032;-90
2022/04/04 02:15:23;;;;;;;30.48;21.65;;;2.70;99.90;;;;;;5054267;28;20387;-89
2022/04/04 02:17:48;;;;;;;27.48;20.75;;;2.70;99.90;;;;;;5054296;28;20039;-90
2022/04/04 02:20:23;;;;;;;25.67;19.45;;;2.70;99.90;;;;;;5054354;28;20111;-89
2022/04/04 02:22:50;;;;;;;30.90;19.20;;;2.70;99.90;;;;;;5070883;28;20093;-90
2022/04/04 02:25:15;;;;;;;31.60;18.17;;;2.70;99.90;;;;;;5072265;28;20021;-90
2022/04/04 02:27:42;;;;;;;25.85;19.73;;;2.80;99.90;;;;;;5054034;28;20031;-91
2022/04/04 02:30:08;;;;;;;24.73;18.20;;;2.70;99.90;;;;;;5054024;28;20387;-90
2022/04/04 02:32:44;;;;;;;29.83;19.38;;;2.80;99.90;;;;;;5072021;28;20029;-90
2022/04/04 02:35:09;;;;;;;;;;;2.80;99.90;;;;;;5045979;28;20495;-89
2022/04/04 02:37:39;;;;;;;28.27;19.88;;;2.80;99.90;;;;;;5071727;28;19913;-89
2022/04/04 02:40:16;;;;;;;25.77;19.17;;;2.80;99.90;;;;;;5071474;28;20401;-91
2022/04/04 02:42:42;;;;;;;25.20;17.98;;;2.80;99.90;;;;;;5075604;28;20032;-90
2022/04/04 02:45:20;;;;;;;30.05;20.10;;;2.80;99.90;;;;;;5057554;28;20025;-91
2022/04/04 02:47:46;;;;;;;26.58;19.42;;;2.80;99.90;;;;;;5057908;28;20532;-90
2022/04/04 02:50:14;;;;;;;31.05;20.40;;;2.80;99.90;;;;;;5075366;28;20510;-89
2022/04/04 02:52:46;;;;;;;25.55;17.70;;;2.80;99.90;;;;;;5057459;28;20054;-91
2022/04/04 02:57:56;;;;;;;26.30;18.67;;;2.90;99.90;;;;;;5075411;28;20032;-91
2022/04/04 03:00:51;;;;;;;30.10;18.23;;;2.80;99.90;;;;;;5057421;28;20048;-89
2022/04/04 03:03:17;;;;;;;26.90;19.60;;;2.90;99.90;;;;;;5055088;28;20031;-91
2022/04/04 03:06:00;;;;;;;27.10;17.70;;;2.80;99.90;;;;;;5048549;28;20021;-90
2022/04/04 03:08:26;;;;;;;27.60;18.70;;;2.80;99.90;;;;;;5075147;28;20499;-91
2022/04/04 03:10:55;;;;;;;28.73;18.55;;;2.80;99.90;;;;;;5075164;28;20025;-91
2022/04/04 03:13:21;;;;;;;24.25;17.50;;;2.90;99.90;;;;;;5057436;28;20021;-91
2022/04/04 03:15:47;;;;;;;22.30;17.23;;;2.90;99.90;;;;;;5057242;28;20016;-91
2022/04/04 03:19:03;;;;;;;33.15;16.67;;;2.90;99.90;;;;;;5057443;28;20056;-92
2022/04/04 03:21:29;;;;;;;26.38;17.52;;;2.80;99.90;;;;;;5074668;28;20017;-91
2022/04/04 03:23:55;;;;;;;25.27;17.23;;;2.90;99.90;;;;;;5056935;28;20078;-89
2022/04/04 03:26:31;;;;;;;27.05;17.83;;;2.90;99.90;;;;;;5074932;28;20021;-89
2022/04/04 03:28:56;;;;;;;24.45;17.45;;;2.90;99.90;;;;;;5056732;28;20017;-90
2022/04/04 03:31:23;;;;;;;28.10;18.75;;;2.90;99.90;;;;;;5057281;28;20483;-90
2022/04/04 03:33:49;;;;;;;29.27;19.85;;;2.80;99.90;;;;;;5056895;28;20533;-90
2022/04/04 03:36:14;;;;;;;31.42;20.45;;;2.90;99.90;;;;;;5056476;28;20028;-89
2022/04/04 03:38:47;;;;;;;26.30;19.90;;;2.90;99.90;;;;;;5056808;28;20043;-91
2022/04/04 03:41:18;;;;;;;36.38;21.80;;;2.90;99.90;;;;;;5057039;28;20055;-91
2022/04/04 03:43:44;;;;;;;28.50;20.70;;;2.90;99.90;;;;;;5056416;28;20050;-92
2022/04/04 03:46:20;;;;;;;30.58;20.85;;;2.90;99.90;;;;;;5056836;28;20020;-91
2022/04/04 03:48:46;;;;;;;30.60;20.35;;;2.90;99.90;;;;;;5056720;28;20031;-91
2022/04/04 03:51:12;;;;;;;31.73;21.30;;;2.90;99.90;;;;;;5056337;28;20025;-91
2022/04/04 03:53:39;;;;;;;31.55;21.13;;;2.90;99.90;;;;;;5055966;28;20384;-90
2022/04/04 03:56:07;;;;;;;29.40;20.65;;;2.90;99.90;;;;;;5056536;28;20040;-91
2022/04/04 03:58:33;;;;;;;29.83;19.77;;;2.90;99.90;;;;;;5073279;28;20021;-92
2022/04/04 04:00:59;;;;;;;28.23;20.38;;;2.90;99.90;;;;;;5056563;28;20025;-92
2022/04/04 04:03:26;;;;;;;29.33;20.77;;;2.90;99.90;;;;;;5056133;28;20024;-91
2022/04/04 04:06:11;;;;;;;27.33;20.73;;;2.90;99.90;;;;;;5056272;28;20440;-91
2022/04/04 04:08:42;;;;;;;37.63;20.48;;;2.80;99.90;;;;;;5074026;28;20567;-93
2022/04/04 04:14:33;;;;;;;31.73;21.25;;;2.90;99.90;;;;;;5074032;28;20027;-92
2022/04/04 04:16:59;;;;;;;36.33;21.80;;;2.80;99.90;;;;;;5056215;28;20039;-92
2022/04/04 04:22:11;;;;;;;31.58;20.48;;;2.90;99.90;;;;;;5074101;28;20027;-92
2022/04/04 04:24:40;;;;;;;31.35;21.55;;;2.90;99.90;;;;;;5072673;28;20029;-92
2022/04/04 04:27:06;;;;;;;30.80;22.30;;;2.90;99.90;;;;;;5056290;28;20025;-93
2022/04/04 04:29:32;;;;;;;31.77;22.27;;;2.90;99.90;;;;;;5056328;28;20473;-92
2022/04/04 04:32:14;;;;;;;33.13;21.70;;;2.90;99.90;;;;;;5056468;28;20520;-93
2022/04/04 04:34:39;;;;;;;32.13;21.75;;;2.90;99.90;;;;;;5073683;28;20070;-92
2022/04/04 04:37:08;;;;;;;28.10;21.35;;;2.90;99.90;;;;;;5053454;28;20024;-92
2022/04/04 04:39:34;;;;;;;29.63;21.65;;;2.80;99.90;;;;;;5053340;28;20032;-92
2022/04/04 04:42:29;;;;;;;30.15;21.02;;;2.90;99.90;;;;;;5072215;28;20048;-93
2022/04/04 04:44:55;;;;;;;29.25;21.50;;;2.90;99.90;;;;;;5061514;28;20033;-93
2022/04/04 04:47:27;;;;;;;30.50;20.65;;;2.90;99.90;;;;;;5072374;28;20371;-91
2022/04/04 04:49:53;;;;;;;43.55;24.20;;;2.80;99.90;;;;;;5042113;28;20021;-93
2022/04/04 04:52:26;;;;;;;31.98;21.90;;;2.90;99.90;;;;;;5050638;28;20357;-92
2022/04/04 04:54:52;;;;;;;27.52;20.65;;;2.90;99.90;;;;;;5073452;28;20028;-91
2022/04/04 04:57:23;;;;;;;33.42;22.45;;;2.90;99.90;;;;;;5073432;28;20028;-93
2022/04/04 04:59:48;;;;;;;28.80;20.27;;;2.90;99.90;;;;;;5055939;28;20119;-94
2022/04/04 05:02:16;;;;;;;30.42;21.10;;;2.90;99.90;;;;;;5071907;28;20117;-93
2022/04/04 05:04:42;;;;;;;29.40;19.85;;;3.00;99.90;;;;;;5054491;28;20040;-92
2022/04/04 05:07:10;;;;;;;27.25;20.35;;;3.00;99.90;;;;;;5055080;28;20055;-93
2022/04/04 05:09:36;;;;;;;31.48;20.55;;;3.00;99.90;;;;;;5071934;28;20043;-92
2022/04/04 05:12:02;;;;;;;27.70;19.67;;;2.90;99.90;;;;;;5072887;28;20438;-92
2022/04/04 05:14:28;;;;;;;26.70;19.13;;;3.00;99.90;;;;;;5055458;28;20059;-93
2022/04/04 05:16:54;;;;;;;27.33;19.45;;;3.00;99.90;;;;;;5055052;28;20028;-92
2022/04/04 05:19:22;;;;;;;32.33;20.30;;;2.90;99.90;;;;;;5054572;28;20081;-91
2022/04/04 05:22:07;;;;;;;29.30;19.38;;;3.00;99.90;;;;;;5072715;28;20487;-91
2022/04/04 05:24:34;;;;;;;27.05;19.15;;;3.00;99.90;;;;;;5072955;28;20052;-89
2022/04/04 05:27:00;;;;;;;28.33;19.65;;;3.10;99.90;;;;;;5054840;28;20020;-89
2022/04/04 05:29:52;;;;;;;27.20;18.52;;;3.10;99.90;;;;;;5072912;28;20021;-91
2022/04/04 05:32:19;;;;;;;28.60;18.63;;;3.00;99.90;;;;;;5054359;28;20468;-90
2022/04/04 05:34:52;;;;;;;29.33;18.23;;;3.10;99.90;;;;;;5072775;28;20369;-91
2022/04/04 05:37:20;;;;;;;30.25;18.52;;;3.00;99.90;;;;;;5072538;28;20146;-91
2022/04/04 05:39:52;;;;;;;33.83;20.05;;;3.10;99.90;;;;;;5072514;28;20158;-91
2022/04/04 05:42:18;;;;;;;32.88;18.40;;;3.10;99.90;;;;;;5072766;28;20040;-91
2022/04/04 05:44:50;;;;;;;27.63;18.55;;;3.10;99.90;;;;;;5072757;28;20040;-90
2022/04/04 05:47:19;;;;;;;28.85;17.92;;;3.10;99.90;;;;;;5055001;28;20108;-88
2022/04/04 05:49:48;;;;;;;29.58;19.88;;;3.10;99.90;;;;;;5054730;28;20024;-90
2022/04/04 05:52:15;;;;;;;24.90;18.92;;;3.10;99.90;;;;;;5054438;28;20025;-91
2022/04/04 05:54:55;;;;;;;28.25;17.17;;;3.20;99.90;;;;;;5054742;28;20035;-89
2022/04/04 05:57:25;;;;;;;23.25;17.42;;;3.10;99.90;;;;;;5054721;28;20050;-87
2022/04/04 05:59:54;;;;;;;30.42;20.00;;;3.20;99.90;;;;;;5054599;28;20115;-89
2022/04/04 06:02:21;;;;;;;31.55;19.92;;;3.20;99.90;;;;;;5054565;28;20052;-88
2022/04/04 06:04:53;;;;;;;32.92;22.63;;;3.20;99.90;;;;;;5072876;28;20026;-89
2022/04/04 06:07:19;;;;;;;33.10;21.08;;;3.20;99.90;;;;;;5072515;28;20028;-89
2022/04/04 06:09:54;;;;;;;34.20;21.83;;;3.20;99.90;;;;;;5072589;28;20097;-87
2022/04/04 06:12:19;;;;;;;32.47;19.90;;;3.20;99.90;;;;;;5072494;28;20035;-90
2022/04/04 06:15:03;;;;;;;37.65;22.05;;;3.20;99.90;;;;;;5072828;28;20033;-89
2022/04/04 06:17:28;;;;;;;32.60;20.95;;;3.20;99.90;;;;;;5076469;28;20033;-90
2022/04/04 06:19:56;;;;;;;36.33;21.17;;;3.20;99.90;;;;;;5058047;28;20036;-89
2022/04/04 06:22:23;;;;;;;31.63;22.15;;;3.20;99.90;;;;;;5076052;28;20035;-87
2022/04/04 06:24:50;;;;;;;30.17;21.70;;;3.20;99.90;;;;;;5058176;28;20054;-88
2022/04/04 06:27:16;;;;;;;33.20;21.02;;;3.30;99.90;;;;;;5058350;28;20025;-89
2022/04/04 06:29:43;;;;;;;32.58;22.52;;;3.20;99.90;;;;;;5076094;28;20078;-88
2022/04/04 06:32:10;;;;;;;29.48;20.95;;;3.40;99.90;;;;;;5058086;28;20024;-88
2022/04/04 06:34:41;;;;;;;29.77;20.42;;;3.30;99.90;;;;;;5075893;28;20027;-87
2022/04/04 06:37:10;;;;;;;36.85;22.67;;;3.40;99.90;;;;;;5075814;28;20052;-89
2022/04/04 06:39:53;;;;;;;30.92;20.77;;;3.40;99.90;;;;;;5058048;28;20032;-89
2022/04/04 06:42:19;;;;;;;29.80;20.80;;;3.30;99.90;;;;;;5035874;28;20425;-88
2022/04/04 06:44:50;;;;;;;27.98;19.55;;;3.40;99.90;;;;;;5034493;28;20052;-89
2022/04/04 06:47:15;;;;;;;36.50;20.13;;;3.40;99.90;;;;;;5035988;28;20017;-88
2022/04/04 06:49:55;;;;;;;26.67;19.90;;;3.40;99.90;;;;;;5035783;28;20088;-86
2022/04/04 06:52:21;;;;;;;27.45;18.58;;;3.50;99.90;;;;;;5036078;28;20138;-91
2022/04/04 06:55:13;;;;;;;35.20;18.45;;;3.50;99.90;;;;;;5034445;28;20022;-88
2022/04/04 06:57:38;;;;;;;23.73;17.15;;;3.50;99.90;;;;;;5035645;28;20036;-88
2022/04/04 07:00:29;;;;;;;25.15;17.75;;;3.50;99.90;;;;;;5035539;28;20029;-89
2022/04/04 07:02:57;;;;;;;29.20;18.25;;;3.60;99.90;;;;;;5035411;28;20030;-89
2022/04/04 07:05:31;;;;;;;27.25;17.00;;;3.60;99.90;;;;;;5050752;28;20029;-88
2022/04/04 07:07:57;;;;;;;25.15;16.83;;;3.60;99.90;;;;;;5035498;28;20052;-88
2022/04/04 07:10:29;;;;;;;28.70;17.23;;;3.60;99.90;;;;;;5034153;28;20022;-87
2022/04/04 07:12:55;;;;;;;25.10;17.70;;;3.70;99.90;;;;;;5034120;28;20112;-88
2022/04/04 07:15:31;;;;;;;27.73;16.73;;;3.70;99.90;;;;;;5035265;28;20481;-87
2022/04/04 07:17:57;;;;;;;24.30;17.70;;;3.80;99.90;;;;;;5034077;28;20069;-88
2022/04/04 07:20:38;;;;;;;25.75;17.17;;;3.90;99.90;;;;;;5050714;28;20489;-89
2022/04/04 07:23:05;;;;;;;22.30;16.30;;;3.90;99.90;;;;;;5033923;28;20041;-89
2022/04/04 07:25:36;;;;;;;23.33;16.10;;;3.90;99.90;;;;;;5033760;28;20041;-87
2022/04/04 07:28:02;;;;;;;26.00;17.13;;;4.00;99.90;;;;;;5034137;28;20021;-86
2022/04/04 07:30:39;;;;;;;33.88;15.10;;;4.00;99.90;;;;;;5033769;28;20485;-89
2022/04/04 07:33:04;;;;;;;22.85;14.88;;;4.10;99.90;;;;;;5034934;28;20032;-87
2022/04/04 07:35:47;;;;;;;22.25;14.85;;;4.10;99.90;;;;;;5034515;28;20037;-87
2022/04/04 07:38:13;;;;;;;23.67;14.27;;;4.10;99.90;;;;;;5034603;28;20497;-87
2022/04/04 07:40:39;;;;;;;20.17;14.25;;;4.20;99.90;;;;;;5039891;28;20052;-90
2022/04/04 07:43:04;;;;;;;18.98;13.43;;;4.30;99.90;;;;;;5054764;28;20025;-89
2022/04/04 07:45:31;;;;;;;30.35;14.18;;;4.30;99.90;;;;;;5054629;28;20025;-87
2022/04/04 07:48:03;;;;;;;22.80;13.30;;;4.30;99.90;;;;;;5054657;28;20028;-88
2022/04/04 07:50:30;;;;;;;19.83;14.52;;;4.40;99.90;;;;;;5053158;28;20021;-89
2022/04/04 07:53:19;;;;;;;25.55;14.60;;;4.40;99.90;;;;;;5053193;28;20028;-88
2022/04/04 07:55:44;;;;;;;16.83;12.95;;;4.50;99.90;;;;;;5053287;28;20028;-89
2022/04/04 07:58:16;;;;;;;15.43;12.80;;;4.60;99.90;;;;;;5054418;28;20468;-89
2022/04/04 08:00:42;;;;;;;16.83;12.23;;;4.60;99.90;;;;;;5053535;28;20025;-87
2022/04/04 08:03:34;;;;;;;18.85;12.60;;;4.60;99.90;;;;;;5053199;28;20483;-89
2022/04/04 08:05:59;;;;;;;16.88;12.38;;;4.70;99.90;;;;;;5052738;28;20548;-86
2022/04/04 08:08:26;;;;;;;20.52;12.75;;;4.70;99.90;;;;;;5054188;28;20162;-87
2022/04/04 08:10:52;;;;;;;15.82;12.30;;;4.70;99.90;;;;;;5053830;28;20040;-87
2022/04/04 08:13:19;;;;;;;23.90;11.60;;;4.70;99.90;;;;;;5053660;28;20457;-89
2022/04/04 08:15:45;;;;;;;21.17;13.18;;;4.80;99.90;;;;;;5053869;28;20070;-89
2022/04/04 08:18:49;;;;;;;20.65;13.60;;;4.80;99.90;;;;;;5052347;28;20415;-87
2022/04/04 08:21:15;;;;;;;19.25;12.25;;;4.80;99.90;;;;;;5053602;28;20061;-88
2022/04/04 08:24:03;;;;;;;20.15;11.75;;;4.80;99.90;;;;;;5053781;28;20017;-88
2022/04/04 08:26:28;;;;;;;15.43;11.70;;;4.80;99.90;;;;;;5052537;28;20151;-88
2022/04/04 08:28:54;;;;;;;19.40;11.52;;;4.80;99.90;;;;;;5053892;28;20416;-89
2022/04/04 08:31:19;;;;;;;16.38;11.27;;;4.90;99.90;;;;;;5053952;28;20017;-91
2022/04/04 08:37:29;;;;;;;16.50;11.15;;;4.90;99.90;;;;;;5053789;28;20545;-90
2022/04/04 08:39:55;;;;;;;22.30;11.45;;;4.90;99.90;;;;;;5052574;28;20044;-87
2022/04/04 08:42:27;;;;;;;17.20;11.57;;;4.80;99.90;;;;;;5073055;28;20052;-87
2022/04/04 08:44:55;;;;;;;17.40;11.63;;;4.90;99.90;;;;;;5072367;28;20123;-90
2022/04/04 08:47:31;;;;;;;23.65;12.70;;;4.90;99.90;;;;;;5073413;28;20035;-89
2022/04/04 08:49:58;;;;;;;22.38;11.90;;;5.00;99.90;;;;;;5073225;28;20115;-88
2022/04/04 08:52:45;;;;;;;19.02;12.07;;;4.80;99.90;;;;;;5055312;28;20029;-91
2022/04/04 08:55:13;;;;;;;16.83;11.85;;;4.80;99.90;;;;;;5073301;28;20062;-88
2022/04/04 08:57:39;;;;;;;22.33;12.25;;;4.70;99.90;;;;;;5055318;28;20031;-87
2022/04/04 09:00:06;;;;;;;17.80;11.68;;;4.70;99.90;;;;;;5055485;28;20036;-87
2022/04/04 09:02:32;;;;;;;16.08;11.48;;;4.80;99.90;;;;;;5055178;28;20085;-87
2022/04/04 09:05:04;;;;;;;22.67;12.15;;;4.70;99.90;;;;;;5054820;28;20025;-88
2022/04/04 09:08:04;;;;;;;20.50;11.45;;;4.70;99.90;;;;;;5072960;28;20021;-88
2022/04/04 09:10:32;;;;;;;19.27;11.20;;;4.80;99.90;;;;;;5073043;28;20036;-92
2022/04/04 09:13:07;;;;;;;16.13;11.68;;;4.90;99.90;;;;;;5055002;28;20472;-87
2022/04/04 09:15:52;;;;;;;14.68;10.05;;;4.90;99.90;;;;;;5072982;28;20040;-87
2022/04/04 09:18:46;;;;;;;17.48;11.10;;;4.90;99.90;;;;;;5072969;28;20442;-87
2022/04/04 09:21:33;;;;;;;17.85;11.63;;;4.90;99.90;;;;;;5069967;28;20072;-89
2022/04/04 09:24:03;;;;;;;18.40;10.00;;;5.00;99.90;;;;;;5072922;28;20123;-91
2022/04/04 09:26:54;;;;;;;14.60;10.13;;;5.00;99.90;;;;;;5054951;28;20020;-87
2022/04/04 09:29:22;;;;;;;19.60;8.95;;;5.10;99.90;;;;;;5072969;28;20024;-88
2022/04/04 09:32:08;;;;;;;13.57;10.00;;;5.10;99.90;;;;;;5049897;28;20473;-87
2022/04/04 09:34:50;;;;;;;14.73;8.57;;;5.10;99.90;;;;;;5072429;28;20023;-88
2022/04/04 09:37:17;;;;;;;18.00;8.27;;;5.10;99.90;;;;;;5072637;28;20480;-88
2022/04/04 09:39:42;;;;;;;12.90;7.32;;;5.20;99.90;;;;;;5072649;28;20021;-88
2022/04/04 09:42:19;;;;;;;12.80;7.03;;;5.30;99.90;;;;;;5071590;28;20128;-88
2022/04/04 09:45:11;;;;;;;11.90;7.28;;;5.40;99.90;;;;;;5072675;28;20020;-88
2022/04/04 09:47:53;;;;;;;7.18;5.25;;;5.50;99.90;;;;;;5054543;28;20020;-88
2022/04/04 09:50:47;;;;;;;15.98;5.95;;;5.50;99.90;;;;;;5073656;28;20107;-88
2022/04/04 09:53:16;;;;;;;7.18;5.50;;;5.60;99.90;;;;;;5076240;28;20427;-87
2022/04/04 09:55:55;;;;;;;11.07;5.70;;;5.60;99.90;;;;;;5076757;28;20100;-88
2022/04/04 09:58:23;;;;;;;10.40;5.47;;;5.60;99.90;;;;;;5058697;28;20480;-88
2022/04/04 10:01:00;;;;;;;6.68;5.28;;;5.70;99.90;;;;;;5058592;28;20024;-88
2022/04/04 10:03:29;;;;;;;13.35;5.72;;;5.70;99.90;;;;;;5075978;28;20028;-87
2022/04/04 10:06:16;;;;;;;7.30;3.90;;;5.70;99.90;;;;;;5058018;28;20036;-91
2022/04/04 10:08:43;;;;;;;;;;;5.70;99.90;;;;;;5058702;28;20411;-90
2022/04/04 10:11:13;;;;;;;8.50;5.32;;;5.70;99.90;;;;;;5058236;28;19904;-86
2022/04/04 10:13:39;;;;;;;9.98;5.25;;;5.60;99.90;;;;;;5076097;28;20017;-90
2022/04/04 10:16:16;;;;;;;12.93;5.03;;;5.50;99.90;;;;;;5076261;28;20028;-91
2022/04/04 10:18:46;;;;;;;9.05;5.20;;;5.40;99.90;;;;;;5058139;28;20055;-89
2022/04/04 10:21:21;;;;;;;17.27;6.70;;;5.30;99.90;;;;;;5058035;28;20480;-90
2022/04/04 10:23:50;;;;;;;17.25;8.77;;;5.20;99.90;;;;;;5075950;28;20028;-90
2022/04/04 10:26:20;;;;;;;24.25;8.10;;;5.10;99.90;;;;;;5075892;28;20036;-88
2022/04/04 10:28:47;;;;;;;13.90;7.55;;;5.00;99.90;;;;;;5076217;28;20020;-86
2022/04/04 10:31:23;;;;;;;42.42;10.00;;;4.80;99.90;;;;;;5075855;28;20065;-89
2022/04/04 10:33:50;;;;;;;8.50;6.15;;;4.70;99.90;;;;;;5057835;28;20107;-89
2022/04/04 10:36:24;;;;;;;39.15;12.55;;;4.60;99.90;;;;;;5057574;28;20039;-89
2022/04/04 10:39:04;;;;;;;16.92;8.45;;;4.60;99.90;;;;;;5057671;28;20031;-87
2022/04/04 10:41:32;;;;;;;15.52;8.13;;;4.40;99.90;;;;;;5075653;28;20051;-87
2022/04/04 10:43:58;;;;;;;15.15;6.72;;;4.30;99.90;;;;;;5057777;28;20472;-86
2022/04/04 10:46:25;;;;;;;17.50;8.70;;;4.10;99.90;;;;;;5057998;28;20223;-90
2022/04/04 10:49:44;;;;;;;19.20;7.47;;;4.00;99.90;;;;;;5075773;28;20060;-90
2022/04/04 10:52:09;;;;;;;12.05;6.30;;;4.00;99.90;;;;;;5075968;28;20031;-89
2022/04/04 10:54:38;;;;;;;9.20;6.70;;;3.90;99.90;;;;;;5075672;28;20026;-90
2022/04/04 10:57:22;;;;;;;12.35;6.55;;;4.00;99.90;;;;;;5075749;28;20543;-88
2022/04/04 10:59:48;;;;;;;9.55;5.57;;;4.00;99.90;;;;;;5076037;28;20365;-91
2022/04/04 11:02:19;;;;;;;13.52;6.97;;;4.10;99.90;;;;;;5057481;28;20025;-87
2022/04/04 11:07:38;;;;;;;10.75;6.15;;;4.10;99.90;;;;;;5075938;28;20043;-89
2022/04/04 11:10:06;;;;;;;14.38;7.25;;;4.20;99.90;;;;;;5057496;28;20039;-89
2022/04/04 11:13:04;;;;;;;15.63;7.85;;;4.40;99.90;;;;;;5058783;28;20021;-92
2022/04/04 11:15:43;;;;;;;12.90;6.75;;;4.40;99.90;;;;;;5075327;28;20020;-91
2022/04/04 11:18:10;;;;;;;10.35;6.38;;;4.60;99.90;;;;;;5057252;28;20105;-89
2022/04/04 11:21:00;;;;;;;12.73;6.43;;;4.70;99.90;;;;;;5075182;28;20016;-89
2022/04/04 11:23:27;;;;;;;31.00;8.43;;;4.70;99.90;;;;;;5075043;28;20024;-89
2022/04/04 11:26:18;;;;;;;10.20;6.45;;;4.90;99.90;;;;;;5075002;28;20056;-89
2022/04/04 11:28:46;;;;;;;8.82;5.63;;;4.90;99.90;;;;;;5057230;28;20530;-88
2022/04/04 11:31:54;;;;;;;9.32;6.53;;;5.00;99.90;;;;;;5057111;28;20025;-89
2022/04/04 11:34:21;;;;;;;14.05;6.03;;;5.00;99.90;;;;;;5074775;28;20464;-89
2022/04/04 11:36:58;;;;;;;12.60;6.22;;;5.10;99.90;;;;;;5074855;28;20062;-91
2022/04/04 11:39:24;;;;;;;9.70;6.35;;;5.10;99.90;;;;;;5074654;28;20047;-91
2022/04/04 11:41:51;;;;;;;12.63;6.72;;;5.10;99.90;;;;;;5061211;28;20888;-90
2022/04/04 11:44:34;;;;;;;13.77;6.53;;;5.20;99.90;;;;;;5066379;28;20032;-90
2022/04/04 11:47:04;;;;;;;12.50;7.13;;;5.30;99.90;;;;;;5056965;28;20020;-90
2022/04/04 11:49:37;;;;;;;11.77;7.75;;;5.30;99.90;;;;;;5056343;28;20055;-88
2022/04/04 11:52:06;;;;;;;9.00;7.40;;;5.30;99.90;;;;;;5056687;28;20016;-89
2022/04/04 11:54:42;;;;;;;13.20;7.45;;;5.30;99.90;;;;;;5056522;28;20433;-91
2022/04/04 11:57:46;;;;;;;15.10;7.57;;;5.30;99.90;;;;;;5074606;28;20024;-89
2022/04/04 12:00:18;;;;;;;10.32;7.90;;;5.40;99.90;;;;;;5074346;28;20020;-90
2022/04/04 12:02:49;;;;;;;14.25;8.18;;;5.40;99.90;;;;;;5074181;28;20527;-87
2022/04/04 12:05:17;;;;;;;11.85;7.82;;;5.40;99.90;;;;;;5074272;28;20032;-89
2022/04/04 12:07:43;;;;;;;8.65;6.88;;;5.40;99.90;;;;;;5074144;28;20016;-89
2022/04/04 12:10:47;;;;;;;10.63;7.90;;;5.50;99.90;;;;;;5056444;28;20376;-87
2022/04/04 12:13:19;;;;;;;15.23;9.02;;;5.40;99.90;;;;;;5073257;28;20483;-88
2022/04/04 12:15:54;;;;;;;13.55;8.20;;;5.40;99.90;;;;;;5074250;28;20047;-88
2022/04/04 12:18:28;;;;;;;13.43;8.30;;;5.40;99.90;;;;;;5073879;28;20032;-86
2022/04/04 12:20:58;;;;;;;13.95;9.23;;;5.50;99.90;;;;;;5055683;28;20784;-92
2022/04/04 12:26:31;;;;;;;14.10;9.77;;;5.50;99.90;;;;;;5073637;28;20040;-89
2022/04/04 12:28:56;;;;;;;18.70;9.20;;;5.40;99.90;;;;;;5073703;28;20032;-88
2022/04/04 12:31:29;;;;;;;16.65;10.35;;;5.40;99.90;;;;;;5073510;28;20033;-87
2022/04/04 12:34:02;;;;;;;15.50;9.43;;;5.30;99.90;;;;;;5073473;28;20059;-89
2022/04/04 12:36:32;;;;;;;12.32;8.68;;;5.30;99.90;;;;;;5073942;28;20024;-91
2022/04/04 12:39:19;;;;;;;26.25;9.75;;;5.30;99.90;;;;;;5073906;28;20021;-91
2022/04/04 12:42:23;;;;;;;13.50;9.65;;;5.20;99.90;;;;;;5073291;28;20127;-89
2022/04/04 12:44:54;;;;;;;17.33;12.50;;;5.20;99.90;;;;;;5055750;28;20365;-89
2022/04/04 12:47:25;;;;;;;18.58;10.82;;;5.20;99.90;;;;;;5073550;28;20027;-89
2022/04/04 12:53:16;;;;;;;14.95;10.68;;;5.10;99.90;;;;;;5056839;28;20150;-89
2022/04/04 12:56:16;;;;;;;13.23;9.50;;;5.10;99.90;;;;;;5073542;28;20021;-88
2022/04/04 12:59:05;;;;;;;16.40;10.40;;;5.00;99.90;;;;;;5055530;28;20047;-87
2022/04/04 13:01:31;;;;;;;33.13;11.45;;;5.00;99.90;;;;;;5055322;28;20487;-85
2022/04/04 13:03:57;;;;;;;24.23;12.10;;;4.90;99.90;;;;;;5072743;28;20054;-84
2022/04/04 13:07:07;;;;;;;25.60;11.77;;;4.90;99.90;;;;;;5073202;28;20020;-91
2022/04/04 13:09:34;;;;;;;16.02;11.18;;;4.90;99.90;;;;;;5073240;28;20437;-90
2022/04/04 13:12:02;;;;;;;17.48;10.55;;;4.90;99.90;;;;;;5073493;28;20024;-88
2022/04/04 13:14:48;;;;;;;19.67;10.00;;;4.90;99.90;;;;;;5055151;28;20024;-87
2022/04/04 13:17:14;;;;;;;13.85;9.15;;;4.90;99.90;;;;;;5073317;28;20020;-87
2022/04/04 13:19:39;;;;;;;14.02;9.63;;;4.90;99.90;;;;;;5072819;28;20078;-87
2022/04/04 13:22:06;;;;;;;17.77;9.07;;;5.00;99.90;;;;;;5073385;28;20064;-88
2022/04/04 13:24:33;;;;;;;13.98;8.68;;;5.00;99.90;;;;;;5072190;28;20142;-87
2022/04/04 13:26:59;;;;;;;14.38;8.77;;;5.00;99.90;;;;;;5072921;28;20020;-88